Time;durP1;ratioP1;P1;durP2;ratioP2;P2;SDS_P1;SDS_P2;PMS_P1;PMS_P2;Temp;Humidity;BMP_temperature;BMP_pressure;BME280_temperature;BME280_humidity;BME280_pressure;Samples;Min_cycle;Max_cycle;Signal;HPM_P1;HPM_P2
2023/06/03 00:01:36;;;;;;;1.17;0.93;;;13.70;99.90;;;;;;6189455;23;20064;-66
2023/06/03 00:04:04;;;;;;;3.15;1.10;;;13.70;99.90;;;;;;6186970;23;20047;-66
2023/06/03 00:06:30;;;;;;;2.05;1.08;;;13.60;99.90;;;;;;6189452;23;20021;-66
2023/06/03 00:08:55;;;;;;;3.05;1.15;;;13.50;99.90;;;;;;6187552;23;20102;-67
2023/06/03 00:11:21;;;;;;;2.70;1.02;;;13.50;99.90;;;;;;6162939;23;20028;-66
2023/06/03 00:13:47;;;;;;;1.65;1.05;;;13.50;99.90;;;;;;6188048;23;20795;-67
2023/06/03 00:16:13;;;;;;;1.77;1.35;;;13.50;99.90;;;;;;6187983;23;20048;-66
2023/06/03 00:18:39;;;;;;;1.83;0.90;;;13.50;99.90;;;;;;6188866;23;20021;-66
2023/06/03 00:21:04;;;;;;;4.07;1.30;;;13.50;99.90;;;;;;6187118;23;20025;-66
2023/06/03 00:23:31;;;;;;;2.05;1.02;;;13.40;99.90;;;;;;6189248;23;20020;-67
2023/06/03 00:25:57;;;;;;;2.53;1.15;;;13.40;99.90;;;;;;6186681;23;20064;-66
2023/06/03 00:28:23;;;;;;;3.95;1.10;;;13.40;99.90;;;;;;6188867;23;20017;-66
2023/06/03 00:30:49;;;;;;;1.98;0.90;;;13.30;99.90;;;;;;6187862;23;20137;-66
2023/06/03 00:33:14;;;;;;;1.45;1.13;;;13.30;99.90;;;;;;6188114;23;20055;-65
2023/06/03 00:35:40;;;;;;;1.30;0.80;;;13.20;99.90;;;;;;6188474;23;20139;-67
2023/06/03 00:38:06;;;;;;;7.05;1.23;;;13.30;99.90;;;;;;6187394;23;20402;-66
2023/06/03 00:40:32;;;;;;;0.95;0.90;;;13.20;99.90;;;;;;6188516;23;20021;-66
2023/06/03 00:42:58;;;;;;;0.88;0.80;;;13.20;99.90;;;;;;6186854;23;20032;-65
2023/06/03 00:45:23;;;;;;;2.42;1.48;;;13.20;99.90;;;;;;6162150;23;20076;-65
2023/06/03 00:47:50;;;;;;;7.32;1.33;;;13.10;99.90;;;;;;6187561;23;20048;-66
2023/06/03 00:50:16;;;;;;;1.20;1.00;;;13.10;99.90;;;;;;6188270;23;20020;-66
2023/06/03 00:52:42;;;;;;;2.08;1.08;;;13.00;99.90;;;;;;6188838;23;20028;-66
2023/06/03 00:55:09;;;;;;;1.92;1.20;;;13.00;99.90;;;;;;6187536;23;20355;-67
2023/06/03 00:57:34;;;;;;;1.90;1.10;;;13.00;99.90;;;;;;6203872;23;20017;-67
2023/06/03 01:00:00;;;;;;;2.88;1.10;;;12.90;99.90;;;;;;6199829;23;20032;-67
2023/06/03 01:02:27;;;;;;;1.50;1.08;;;12.90;99.90;;;;;;6200614;23;20021;-66
2023/06/03 01:04:57;;;;;;;1.10;1.10;;;12.80;99.90;;;;;;6197575;23;20028;-66
2023/06/03 01:08:03;;;;;;;1.88;1.15;;;12.80;99.90;;;;;;6167038;23;20028;-67
2023/06/03 01:10:43;;;;;;;1.65;1.05;;;12.70;99.90;;;;;;6192485;23;20151;-66
2023/06/03 01:13:16;;;;;;;1.58;1.20;;;12.70;99.90;;;;;;6191037;23;20032;-67
2023/06/03 01:15:45;;;;;;;1.52;1.38;;;12.70;99.90;;;;;;6191852;23;20059;-67
2023/06/03 01:18:14;;;;;;;1.13;1.02;;;12.60;99.90;;;;;;6191083;23;20081;-67
2023/06/03 01:20:42;;;;;;;2.10;1.30;;;12.60;99.90;;;;;;6190484;23;20021;-66
2023/06/03 01:23:33;;;;;;;2.45;1.10;;;12.60;99.90;;;;;;6192069;23;20060;-66
2023/06/03 01:26:04;;;;;;;1.42;1.00;;;12.60;99.90;;;;;;6189817;23;20032;-66
2023/06/03 01:28:31;;;;;;;1.35;1.15;;;12.50;99.90;;;;;;6191782;23;20021;-66
2023/06/03 01:30:58;;;;;;;1.20;1.10;;;12.50;99.90;;;;;;6190860;23;20028;-66
2023/06/03 01:33:25;;;;;;;1.20;1.10;;;12.50;99.90;;;;;;6191358;23;20013;-66
2023/06/03 01:35:53;;;;;;;1.40;1.20;;;12.40;99.90;;;;;;6192245;23;20089;-66
2023/06/03 01:38:20;;;;;;;1.10;1.00;;;12.40;99.90;;;;;;6189957;23;20530;-66
2023/06/03 01:40:46;;;;;;;3.88;1.40;;;12.40;99.90;;;;;;6192231;23;20025;-66
2023/06/03 01:43:12;;;;;;;1.58;1.33;;;12.40;99.90;;;;;;6190290;23;20017;-66
2023/06/03 01:45:37;;;;;;;0.95;0.95;;;12.30;99.90;;;;;;6191987;23;20473;-66
2023/06/03 01:48:04;;;;;;;1.95;1.20;;;12.30;99.90;;;;;;6191307;23;20049;-66
2023/06/03 01:50:29;;;;;;;1.50;1.25;;;12.20;99.90;;;;;;6191159;23;20021;-66
2023/06/03 01:52:55;;;;;;;1.27;1.13;;;12.20;99.90;;;;;;6192331;23;20055;-66
2023/06/03 01:55:21;;;;;;;3.90;0.90;;;12.10;99.90;;;;;;6190546;23;20514;-66
2023/06/03 01:57:47;;;;;;;3.30;1.00;;;12.20;99.90;;;;;;6192876;23;20017;-66
2023/06/03 02:00:15;;;;;;;3.38;1.20;;;12.20;99.90;;;;;;6190446;23;20026;-66
2023/06/03 02:02:41;;;;;;;1.60;1.30;;;12.10;99.90;;;;;;6192499;23;20021;-66
2023/06/03 02:05:07;;;;;;;2.03;1.20;;;12.10;99.90;;;;;;6191195;23;20412;-66
2023/06/03 02:07:32;;;;;;;2.25;0.95;;;12.00;99.90;;;;;;6191369;23;20017;-66
2023/06/03 02:09:59;;;;;;;2.35;0.98;;;12.00;99.90;;;;;;6192248;23;20024;-65
2023/06/03 02:12:25;;;;;;;2.22;1.20;;;12.00;99.90;;;;;;6190447;23;20025;-67
2023/06/03 02:14:56;;;;;;;2.30;1.00;;;11.90;99.90;;;;;;6191185;23;20052;-66
2023/06/03 02:17:24;;;;;;;1.17;1.08;;;11.80;99.90;;;;;;6161889;23;20021;-66
2023/06/03 02:19:50;;;;;;;1.20;1.00;;;11.80;99.90;;;;;;6190495;23;20027;-66
2023/06/03 02:22:17;;;;;;;1.40;1.27;;;11.80;99.90;;;;;;6189339;23;20083;-67
2023/06/03 02:24:46;;;;;;;1.23;1.13;;;11.70;99.90;;;;;;6189525;23;20017;-66
2023/06/03 02:27:14;;;;;;;1.67;1.13;;;11.70;99.90;;;;;;6190530;23;20017;-66
2023/06/03 02:29:41;;;;;;;3.95;1.38;;;11.70;99.90;;;;;;6188625;23;20021;-66
2023/06/03 02:32:07;;;;;;;1.30;1.20;;;11.60;99.90;;;;;;6190672;23;20546;-66
2023/06/03 02:34:33;;;;;;;2.17;1.15;;;11.60;99.90;;;;;;6188647;23;20017;-66
2023/06/03 02:36:59;;;;;;;1.20;0.90;;;11.60;99.90;;;;;;6193093;23;20031;-66
2023/06/03 02:39:25;;;;;;;1.25;1.10;;;11.50;99.90;;;;;;6198113;23;21335;-66
2023/06/03 02:41:50;;;;;;;2.85;1.50;;;11.50;99.90;;;;;;6197096;23;20025;-66
2023/06/03 02:44:17;;;;;;;2.15;1.42;;;11.60;99.90;;;;;;6190219;23;20020;-66
2023/06/03 02:46:43;;;;;;;2.25;1.13;;;11.50;99.90;;;;;;6188418;23;20057;-65
2023/06/03 02:49:09;;;;;;;1.40;1.30;;;11.50;99.90;;;;;;6190571;23;20032;-66
2023/06/03 02:51:40;;;;;;;5.90;1.20;;;11.50;99.90;;;;;;6188197;23;20088;-66
2023/06/03 02:54:06;;;;;;;1.33;1.23;;;11.30;99.90;;;;;;6190028;23;20024;-67
2023/06/03 02:56:32;;;;;;;3.58;2.40;;;11.30;99.90;;;;;;6188881;23;20028;-66
2023/06/03 02:58:57;;;;;;;2.13;1.50;;;11.30;99.90;;;;;;6189244;23;20079;-66
2023/06/03 03:01:23;;;;;;;1.95;1.30;;;11.30;99.90;;;;;;6189926;23;20013;-66
2023/06/03 03:03:49;;;;;;;1.65;1.20;;;11.20;99.90;;;;;;6161760;23;20025;-66
2023/06/03 03:06:15;;;;;;;1.58;1.30;;;11.30;99.90;;;;;;6190203;23;20044;-66
2023/06/03 03:08:45;;;;;;;1.40;1.30;;;11.20;99.90;;;;;;6188066;23;20524;-67
2023/06/03 03:11:11;;;;;;;2.42;1.10;;;11.20;99.90;;;;;;6163411;23;20028;-66
2023/06/03 03:13:36;;;;;;;1.33;1.20;;;11.20;99.90;;;;;;6188918;23;20016;-66
2023/06/03 03:16:02;;;;;;;1.40;1.30;;;11.20;99.90;;;;;;6189315;23;20101;-66
2023/06/03 03:18:30;;;;;;;2.15;1.55;;;11.20;99.90;;;;;;6189767;23;20459;-66
2023/06/03 03:20:55;;;;;;;1.15;1.10;;;11.20;99.90;;;;;;6188080;23;20021;-66
2023/06/03 03:23:21;;;;;;;1.77;1.48;;;11.10;99.90;;;;;;6190040;23;20052;-66
2023/06/03 03:25:47;;;;;;;2.13;1.40;;;11.10;99.90;;;;;;6187827;23;20020;-66
2023/06/03 03:28:13;;;;;;;1.23;1.13;;;11.00;99.90;;;;;;6190611;23;20044;-65
2023/06/03 03:30:39;;;;;;;1.52;1.20;;;11.00;99.90;;;;;;6188818;23;20632;-65
2023/06/03 03:33:05;;;;;;;1.98;1.20;;;11.00;99.90;;;;;;6189339;23;20040;-67
2023/06/03 03:35:32;;;;;;;4.13;1.20;;;11.00;99.90;;;;;;6189375;23;20443;-66
2023/06/03 03:37:58;;;;;;;2.00;1.35;;;11.00;99.90;;;;;;6188009;23;20159;-66
2023/06/03 03:40:25;;;;;;;5.00;2.25;;;11.00;99.90;;;;;;6189814;23;20024;-66
2023/06/03 03:42:52;;;;;;;1.30;1.20;;;11.00;99.90;;;;;;6187980;23;20025;-66
2023/06/03 03:45:26;;;;;;;2.67;1.13;;;11.00;99.90;;;;;;6189644;23;20084;-66
2023/06/03 03:47:54;;;;;;;1.88;1.42;;;11.00;99.90;;;;;;6188365;23;20036;-66
2023/06/03 03:50:48;;;;;;;3.05;1.52;;;10.90;99.90;;;;;;6189249;23;20017;-66
2023/06/03 03:53:22;;;;;;;1.30;1.20;;;11.00;99.90;;;;;;6190012;23;20377;-66
2023/06/03 03:55:50;;;;;;;3.83;1.30;;;11.00;99.90;;;;;;6187957;23;20029;-66
2023/06/03 03:58:37;;;;;;;3.13;1.48;;;11.10;99.90;;;;;;6201865;23;20021;-66
2023/06/03 04:01:12;;;;;;;2.75;1.38;;;11.10;99.90;;;;;;6200598;23;20062;-67
2023/06/03 04:03:42;;;;;;;1.55;1.35;;;11.10;99.90;;;;;;6172095;23;20031;-67
2023/06/03 04:06:10;;;;;;;2.63;1.10;;;11.20;99.90;;;;;;6197658;23;20036;-66
2023/06/03 04:08:45;;;;;;;2.70;1.60;;;11.40;99.90;;;;;;6189749;23;20052;-67
2023/06/03 04:11:27;;;;;;;3.88;1.42;;;11.40;99.90;;;;;;6190018;23;20445;-66
2023/06/03 04:13:55;;;;;;;1.90;1.48;;;11.50;99.90;;;;;;6188648;23;20047;-66
2023/06/03 04:16:51;;;;;;;1.40;1.27;;;11.60;99.90;;;;;;6187475;23;20020;-66
2023/06/03 04:19:30;;;;;;;3.08;1.63;;;11.60;99.90;;;;;;6188912;23;20021;-66
2023/06/03 04:21:59;;;;;;;3.42;1.83;;;11.60;99.90;;;;;;6187168;23;20032;-66
2023/06/03 04:24:26;;;;;;;2.47;1.48;;;11.60;99.90;;;;;;6188404;23;20426;-67
2023/06/03 04:26:52;;;;;;;2.47;1.20;;;11.80;99.90;;;;;;6188518;23;20092;-66
2023/06/03 04:29:19;;;;;;;1.30;1.02;;;11.80;99.90;;;;;;6187439;23;20017;-66
2023/06/03 04:31:45;;;;;;;2.53;1.42;;;11.90;99.90;;;;;;6188693;23;20025;-66
2023/06/03 04:34:11;;;;;;;1.70;1.27;;;11.90;99.90;;;;;;6186723;23;20024;-67
2023/06/03 04:36:36;;;;;;;2.00;1.50;;;11.90;99.90;;;;;;6188773;23;20073;-66
2023/06/03 04:39:06;;;;;;;3.10;1.50;;;12.00;99.90;;;;;;6186792;23;20021;-67
2023/06/03 04:41:32;;;;;;;5.80;2.88;;;12.20;99.90;;;;;;6188412;23;20328;-66
2023/06/03 04:44:02;;;;;;;1.48;1.33;;;12.20;99.90;;;;;;6188262;23;20055;-66
2023/06/03 04:46:31;;;;;;;2.42;1.35;;;12.40;99.90;;;;;;6186869;23;20197;-67
2023/06/03 04:48:59;;;;;;;2.17;1.25;;;12.50;99.90;;;;;;6188777;23;20112;-66
2023/06/03 04:51:34;;;;;;;2.78;1.30;;;12.60;99.90;;;;;;6186660;23;20095;-67
2023/06/03 04:54:01;;;;;;;4.45;1.45;;;12.70;99.90;;;;;;6161982;23;20025;-66
2023/06/03 04:56:29;;;;;;;3.33;1.50;;;12.80;99.90;;;;;;6187346;23;20017;-67
2023/06/03 04:59:03;;;;;;;1.95;1.27;;;13.00;99.90;;;;;;6187806;23;20021;-66
2023/06/03 05:01:31;;;;;;;1.60;1.25;;;13.20;99.90;;;;;;6188130;23;20020;-66
2023/06/03 05:03:57;;;;;;;2.60;1.40;;;13.10;99.90;;;;;;6186710;23;20017;-66
2023/06/03 05:06:23;;;;;;;2.65;1.30;;;13.30;99.90;;;;;;6162175;23;20100;-66
2023/06/03 05:08:50;;;;;;;2.70;1.33;;;13.30;99.90;;;;;;6186559;23;20028;-66
2023/06/03 05:11:17;;;;;;;3.47;1.38;;;13.40;99.90;;;;;;6188297;23;20339;-66
2023/06/03 05:13:43;;;;;;;1.90;1.17;;;13.50;99.90;;;;;;6187519;23;20461;-67
2023/06/03 05:16:10;;;;;;;2.70;1.02;;;13.60;99.90;;;;;;6186956;23;20025;-66
2023/06/03 05:18:38;;;;;;;3.55;2.25;;;13.50;99.90;;;;;;6188219;23;20029;-67
2023/06/03 05:21:05;;;;;;;2.17;1.45;;;13.60;99.90;;;;;;6186485;23;20021;-66
2023/06/03 05:23:31;;;;;;;1.30;1.20;;;13.80;99.90;;;;;;6188513;23;20025;-66
2023/06/03 05:25:56;;;;;;;2.40;1.50;;;13.90;99.90;;;;;;6186009;23;20073;-66
2023/06/03 05:28:24;;;;;;;3.42;2.05;;;13.90;99.90;;;;;;6188117;23;20021;-67
2023/06/03 05:30:50;;;;;;;2.50;1.30;;;14.10;99.90;;;;;;6186992;23;20016;-66
2023/06/03 05:33:29;;;;;;;1.80;1.17;;;14.10;99.90;;;;;;6187543;23;20025;-67
2023/06/03 05:35:55;;;;;;;1.40;1.30;;;14.10;99.90;;;;;;6188554;23;20048;-66
2023/06/03 05:38:22;;;;;;;2.35;1.20;;;14.20;99.90;;;;;;6186320;23;20029;-67
2023/06/03 05:40:50;;;;;;;3.20;1.35;;;14.20;99.90;;;;;;6188475;23;20107;-66
2023/06/03 05:43:16;;;;;;;3.20;1.33;;;14.30;99.90;;;;;;6186974;23;20028;-67
2023/06/03 05:45:43;;;;;;;1.70;1.38;;;14.30;99.90;;;;;;6187742;23;20017;-66
2023/06/03 05:48:09;;;;;;;3.08;1.50;;;14.40;99.90;;;;;;6187481;23;20028;-66
2023/06/03 05:50:47;;;;;;;5.40;1.08;;;14.40;99.90;;;;;;6187166;23;20065;-67
2023/06/03 05:53:12;;;;;;;2.05;1.27;;;14.60;99.90;;;;;;6190427;23;20483;-67
2023/06/03 05:55:38;;;;;;;2.28;1.48;;;14.60;99.90;;;;;;6188094;23;20469;-66
2023/06/03 05:58:04;;;;;;;2.55;1.40;;;14.60;99.90;;;;;;6190309;23;20052;-66
2023/06/03 06:00:30;;;;;;;2.53;1.27;;;14.80;99.90;;;;;;6188689;23;20039;-66
2023/06/03 06:02:56;;;;;;;5.45;1.25;;;14.90;99.90;;;;;;6190025;23;20756;-66
2023/06/03 06:05:22;;;;;;;2.75;1.17;;;14.90;99.90;;;;;;6189841;23;20016;-66
2023/06/03 06:07:47;;;;;;;1.73;1.30;;;15.10;99.90;;;;;;6188889;23;20017;-67
2023/06/03 06:10:13;;;;;;;3.75;1.40;;;15.10;99.90;;;;;;6190517;23;20069;-66
2023/06/03 06:12:39;;;;;;;4.47;1.40;;;15.20;99.90;;;;;;6188554;23;20736;-66
2023/06/03 06:15:05;;;;;;;1.52;1.05;;;15.20;99.90;;;;;;6190323;23;20029;-66
2023/06/03 06:17:31;;;;;;;1.80;1.00;;;15.30;99.90;;;;;;6188740;23;20021;-67
2023/06/03 06:19:56;;;;;;;1.23;1.02;;;15.30;99.90;;;;;;6190236;23;20147;-66
2023/06/03 06:22:22;;;;;;;1.48;0.93;;;15.40;99.90;;;;;;6188553;23;20068;-67
2023/06/03 06:24:48;;;;;;;1.52;1.10;;;15.50;99.90;;;;;;6188178;23;20021;-66
2023/06/03 06:27:14;;;;;;;3.63;0.90;;;15.60;99.90;;;;;;6190067;23;20016;-66
2023/06/03 06:29:40;;;;;;;1.10;1.00;;;15.60;99.90;;;;;;6161077;23;20056;-65
2023/06/03 06:32:06;;;;;;;2.10;0.98;;;15.70;99.90;;;;;;6189889;23;20025;-66
2023/06/03 06:34:34;;;;;;;7.88;1.17;;;15.80;99.90;;;;;;6189495;23;20470;-66
2023/06/03 06:37:00;;;;;;;1.60;0.90;;;15.80;99.50;;;;;;6190647;23;20025;-67
2023/06/03 06:39:35;;;;;;;1.20;0.90;;;15.90;99.60;;;;;;6188372;23;20100;-66
2023/06/03 06:42:11;;;;;;;1.52;1.02;;;16.00;99.00;;;;;;6188372;23;20036;-66
2023/06/03 06:45:10;;;;;;;3.42;1.00;;;16.00;98.60;;;;;;6190605;23;20024;-67
2023/06/03 06:47:37;;;;;;;1.13;0.70;;;16.10;97.40;;;;;;6148902;23;20021;-66
2023/06/03 06:50:07;;;;;;;2.20;0.82;;;16.00;98.30;;;;;;6189816;23;20447;-66
2023/06/03 06:52:34;;;;;;;1.25;0.90;;;16.20;98.20;;;;;;6190039;23;20021;-66
2023/06/03 06:55:01;;;;;;;2.90;1.13;;;16.30;98.00;;;;;;6201816;23;20013;-66
2023/06/03 06:57:28;;;;;;;2.60;1.00;;;16.40;98.50;;;;;;6203752;23;20781;-67
2023/06/03 06:59:54;;;;;;;3.38;0.80;;;16.50;97.20;;;;;;6198811;23;20529;-67
2023/06/03 07:02:21;;;;;;;1.80;0.95;;;16.50;97.80;;;;;;6199553;23;20016;-67
2023/06/03 07:04:50;;;;;;;3.55;0.88;;;16.60;97.50;;;;;;6190945;23;20017;-66
2023/06/03 07:07:16;;;;;;;1.25;0.98;;;16.60;97.10;;;;;;6190798;23;20035;-67
2023/06/03 07:09:43;;;;;;;1.73;1.33;;;16.70;97.40;;;;;;6190011;23;20095;-66
2023/06/03 07:12:09;;;;;;;2.35;0.98;;;16.60;97.30;;;;;;6187733;23;20087;-66
2023/06/03 07:14:35;;;;;;;1.90;1.00;;;16.50;96.70;;;;;;6189970;23;20043;-67
2023/06/03 07:17:01;;;;;;;1.45;0.82;;;16.60;97.30;;;;;;6187676;23;20053;-67
2023/06/03 07:19:32;;;;;;;0.98;0.75;;;16.60;97.50;;;;;;6189821;23;20055;-67
2023/06/03 07:21:57;;;;;;;2.47;0.70;;;16.60;97.10;;;;;;6188293;23;20014;-66
2023/06/03 07:24:23;;;;;;;1.92;0.82;;;16.80;97.30;;;;;;6188988;23;20446;-68
2023/06/03 07:26:49;;;;;;;2.90;0.80;;;16.90;97.30;;;;;;6189050;23;20020;-66
2023/06/03 07:29:16;;;;;;;3.03;0.95;;;17.10;97.40;;;;;;6187829;23;20016;-67
2023/06/03 07:31:42;;;;;;;3.05;0.70;;;17.10;96.60;;;;;;6189560;23;20067;-66
2023/06/03 07:34:08;;;;;;;1.70;0.75;;;17.10;97.20;;;;;;6187627;23;20056;-67
2023/06/03 07:36:34;;;;;;;1.30;0.90;;;17.10;96.50;;;;;;6189738;23;20076;-66
2023/06/03 07:39:05;;;;;;;1.30;0.80;;;17.30;96.70;;;;;;6188011;23;20052;-67
2023/06/03 07:41:52;;;;;;;0.85;0.70;;;17.10;95.90;;;;;;6189053;23;20036;-66
2023/06/03 07:44:43;;;;;;;2.70;0.93;;;17.00;95.60;;;;;;6189853;23;20047;-66
2023/06/03 07:47:15;;;;;;;1.50;0.95;;;17.00;95.40;;;;;;6187389;23;20140;-66
2023/06/03 07:49:47;;;;;;;1.17;0.70;;;17.10;96.10;;;;;;6189120;23;20632;-67
2023/06/03 07:52:18;;;;;;;1.13;0.90;;;17.00;96.30;;;;;;6187971;23;20555;-67
2023/06/03 07:54:44;;;;;;;2.28;0.70;;;17.10;96.40;;;;;;6188200;23;20021;-67
2023/06/03 07:57:12;;;;;;;1.65;0.70;;;17.10;96.50;;;;;;6189700;23;20067;-66
2023/06/03 07:59:55;;;;;;;1.48;0.65;;;17.30;96.40;;;;;;6187619;23;20021;-66
2023/06/03 08:02:21;;;;;;;2.55;0.65;;;17.30;95.10;;;;;;6189410;23;20064;-67
2023/06/03 08:04:49;;;;;;;3.08;0.70;;;17.30;95.30;;;;;;6187848;23;20339;-66
2023/06/03 08:07:15;;;;;;;1.25;0.70;;;17.40;95.50;;;;;;6188844;23;20031;-66
2023/06/03 08:09:41;;;;;;;0.90;0.63;;;17.50;94.80;;;;;;6188637;23;20016;-66
2023/06/03 08:12:11;;;;;;;4.40;0.93;;;17.50;94.90;;;;;;6187719;23;20017;-71
2023/06/03 08:14:39;;;;;;;0.60;0.60;;;17.60;94.70;;;;;;6162398;23;20028;-68
2023/06/03 08:17:10;;;;;;;2.88;0.57;;;17.70;94.60;;;;;;6186339;23;20369;-65
2023/06/03 08:19:38;;;;;;;1.27;0.75;;;17.80;94.30;;;;;;6188989;23;20099;-66
2023/06/03 08:22:23;;;;;;;1.42;0.73;;;18.00;94.00;;;;;;6187824;23;20019;-66
2023/06/03 08:24:49;;;;;;;2.38;0.90;;;17.90;93.40;;;;;;6187400;23;20021;-66
2023/06/03 08:27:14;;;;;;;1.48;0.80;;;17.90;92.80;;;;;;6189015;23;20028;-66
2023/06/03 08:29:40;;;;;;;1.63;0.70;;;17.90;93.20;;;;;;6186918;23;20021;-66
2023/06/03 08:32:06;;;;;;;2.63;0.80;;;17.80;93.60;;;;;;6188825;23;20021;-66
2023/06/03 08:34:32;;;;;;;2.75;0.70;;;17.80;92.60;;;;;;6186940;23;20017;-66
2023/06/03 08:36:58;;;;;;;1.58;0.77;;;18.00;93.00;;;;;;6188532;23;20050;-66
2023/06/03 08:39:24;;;;;;;1.73;0.70;;;18.10;91.50;;;;;;6186923;23;20023;-66
2023/06/03 08:41:55;;;;;;;2.08;1.15;;;18.00;91.90;;;;;;6187657;23;20089;-66
2023/06/03 08:44:37;;;;;;;0.95;0.70;;;17.90;92.20;;;;;;6187269;23;20021;-66
2023/06/03 08:47:16;;;;;;;0.77;0.60;;;17.80;91.90;;;;;;6186409;23;20020;-68
2023/06/03 08:50:07;;;;;;;1.65;0.65;;;17.60;92.10;;;;;;6188728;23;20509;-67
2023/06/03 08:52:45;;;;;;;1.25;0.63;;;17.50;91.00;;;;;;6187850;23;20020;-65
2023/06/03 08:55:14;;;;;;;0.88;0.70;;;17.40;91.80;;;;;;6186702;23;20021;-66
2023/06/03 08:57:56;;;;;;;0.50;0.50;;;17.40;92.00;;;;;;6188632;23;20017;-65
2023/06/03 09:00:24;;;;;;;1.20;0.80;;;17.40;92.00;;;;;;6186695;23;20025;-65
2023/06/03 09:02:53;;;;;;;0.85;0.70;;;17.40;91.90;;;;;;6188050;23;20031;-66
2023/06/03 09:05:22;;;;;;;4.45;0.85;;;17.40;92.20;;;;;;6187928;23;20048;-66
2023/06/03 09:07:50;;;;;;;0.93;0.80;;;17.40;92.10;;;;;;6186230;23;20065;-67
2023/06/03 09:10:17;;;;;;;2.58;0.73;;;17.30;91.90;;;;;;6188495;23;20025;-66
2023/06/03 09:12:47;;;;;;;0.98;0.70;;;17.30;92.30;;;;;;6186384;23;20017;-65
2023/06/03 09:15:14;;;;;;;2.30;0.70;;;17.20;91.50;;;;;;6188178;23;20021;-65
2023/06/03 09:17:43;;;;;;;0.90;0.60;;;17.10;91.70;;;;;;6186785;23;20025;-65
2023/06/03 09:20:11;;;;;;;2.03;0.60;;;17.00;91.30;;;;;;6187306;23;20025;-66
2023/06/03 09:22:38;;;;;;;1.05;0.70;;;17.10;91.70;;;;;;6187698;23;20017;-66
2023/06/03 09:25:04;;;;;;;2.67;0.80;;;17.00;91.70;;;;;;6186340;23;20044;-66
2023/06/03 09:27:34;;;;;;;1.17;0.70;;;17.10;91.80;;;;;;6190537;23;20017;-65
2023/06/03 09:30:03;;;;;;;1.65;0.90;;;17.30;92.60;;;;;;6188171;23;20017;-65
2023/06/03 09:32:34;;;;;;;0.60;0.55;;;17.60;92.60;;;;;;6190028;23;20035;-65
2023/06/03 09:35:04;;;;;;;2.70;0.90;;;17.70;91.90;;;;;;6189286;23;20028;-65
2023/06/03 09:37:33;;;;;;;5.47;0.70;;;17.90;91.90;;;;;;6189060;23;20120;-65
2023/06/03 09:40:04;;;;;;;2.83;1.15;;;18.00;91.30;;;;;;6190011;23;20027;-65
2023/06/03 09:42:50;;;;;;;1.92;0.90;;;18.10;90.70;;;;;;6188045;23;20418;-66
2023/06/03 09:45:42;;;;;;;1.13;0.77;;;18.10;90.50;;;;;;6189754;23;20413;-65
2023/06/03 09:48:09;;;;;;;4.57;0.80;;;18.30;91.50;;;;;;6184000;23;20064;-65
2023/06/03 09:50:48;;;;;;;0.80;0.50;;;18.30;90.20;;;;;;6188851;23;20027;-65
2023/06/03 09:53:20;;;;;;;1.67;0.80;;;18.50;89.50;;;;;;6193556;23;20017;-65
2023/06/03 09:55:45;;;;;;;1.00;0.60;;;18.50;88.20;;;;;;6200589;23;20021;-66
2023/06/03 09:58:13;;;;;;;0.65;0.65;;;18.60;90.50;;;;;;6201496;23;20021;-65
2023/06/03 10:00:50;;;;;;;2.63;0.80;;;18.80;89.30;;;;;;6200030;23;20035;-66
2023/06/03 10:03:18;;;;;;;1.75;0.70;;;18.70;89.20;;;;;;6195832;23;20040;-65
2023/06/03 10:05:44;;;;;;;1.33;0.80;;;18.70;88.40;;;;;;6193254;23;20017;-66
2023/06/03 10:08:10;;;;;;;1.73;0.75;;;18.70;90.10;;;;;;6188349;23;20044;-65
2023/06/03 10:10:56;;;;;;;3.83;0.88;;;18.90;88.00;;;;;;6190303;23;20078;-65
2023/06/03 10:13:23;;;;;;;1.85;0.70;;;18.70;87.60;;;;;;6188462;23;20037;-65
2023/06/03 10:15:51;;;;;;;1.10;0.70;;;18.80;89.90;;;;;;6161169;23;20024;-67
2023/06/03 10:18:17;;;;;;;2.95;0.63;;;18.80;90.00;;;;;;6189043;23;20021;-67
2023/06/03 10:20:43;;;;;;;0.70;0.70;;;18.90;89.40;;;;;;6186670;23;20017;-67
2023/06/03 10:23:11;;;;;;;1.08;0.60;;;18.90;88.50;;;;;;6189759;23;20025;-66
2023/06/03 10:25:45;;;;;;;1.48;0.82;;;18.80;86.70;;;;;;6187346;23;20096;-67
2023/06/03 10:28:13;;;;;;;0.80;0.75;;;18.80;87.60;;;;;;6163121;23;20022;-67
2023/06/03 10:30:40;;;;;;;3.10;1.17;;;18.70;85.70;;;;;;6189161;23;20024;-66
2023/06/03 10:33:08;;;;;;;2.40;0.93;;;18.80;86.50;;;;;;6192570;23;20049;-66
2023/06/03 10:35:38;;;;;;;1.30;0.75;;;18.70;85.10;;;;;;6191614;23;20025;-67
2023/06/03 10:38:05;;;;;;;1.23;0.75;;;18.80;84.30;;;;;;6187652;23;20013;-70
2023/06/03 10:40:32;;;;;;;1.15;0.73;;;18.80;85.40;;;;;;6163257;23;20021;-66
2023/06/03 10:42:58;;;;;;;0.70;0.70;;;18.90;86.50;;;;;;6188164;23;20029;-67
2023/06/03 10:45:27;;;;;;;1.02;0.73;;;18.90;85.60;;;;;;6163504;23;20533;-67
2023/06/03 10:48:08;;;;;;;1.88;0.85;;;19.10;85.60;;;;;;6189148;23;20016;-67
2023/06/03 10:50:48;;;;;;;0.68;0.60;;;19.00;85.30;;;;;;6188388;23;20025;-67
2023/06/03 10:53:36;;;;;;;2.53;1.00;;;19.10;84.80;;;;;;6190406;23;20021;-67
2023/06/03 10:56:21;;;;;;;2.65;0.75;;;19.10;86.20;;;;;;6188486;23;20021;-67
2023/06/03 10:58:59;;;;;;;1.00;0.73;;;19.00;84.00;;;;;;6188929;23;20047;-67
2023/06/03 11:02:01;;;;;;;0.73;0.60;;;19.10;86.60;;;;;;6190041;23;20017;-67
2023/06/03 11:04:32;;;;;;;1.83;1.10;;;19.20;84.00;;;;;;6187875;23;20313;-67
2023/06/03 11:06:58;;;;;;;2.10;0.73;;;19.20;85.80;;;;;;6163250;23;20052;-67
2023/06/03 11:09:37;;;;;;;2.10;0.57;;;19.30;82.80;;;;;;6187865;23;20017;-68
2023/06/03 11:12:13;;;;;;;1.33;0.82;;;19.40;84.40;;;;;;6187511;23;20039;-67
2023/06/03 11:14:50;;;;;;;1.08;0.60;;;19.50;84.10;;;;;;6189384;23;20036;-67
2023/06/03 11:17:19;;;;;;;0.77;0.60;;;19.40;85.20;;;;;;6187120;23;21061;-67
2023/06/03 11:19:45;;;;;;;2.85;0.70;;;19.40;84.70;;;;;;6189219;23;20021;-67
2023/06/03 11:22:32;;;;;;;1.38;0.65;;;19.40;84.90;;;;;;6188716;23;20060;-67
2023/06/03 11:24:59;;;;;;;3.05;0.95;;;19.30;84.20;;;;;;6161992;23;20021;-67
2023/06/03 11:27:29;;;;;;;1.77;0.77;;;19.40;85.80;;;;;;6189873;23;20028;-67
2023/06/03 11:30:01;;;;;;;0.90;0.60;;;19.70;87.10;;;;;;6187491;23;20825;-67
2023/06/03 11:32:32;;;;;;;2.95;0.73;;;19.70;85.30;;;;;;6189314;23;20021;-68
2023/06/03 11:35:04;;;;;;;2.05;1.00;;;19.60;84.80;;;;;;6188416;23;20021;-68
2023/06/03 11:37:53;;;;;;;1.13;0.80;;;19.80;85.20;;;;;;6188465;23;20936;-68
2023/06/03 11:40:22;;;;;;;3.03;0.70;;;19.80;83.50;;;;;;6169914;23;20025;-67
2023/06/03 11:42:51;;;;;;;1.35;0.90;;;19.80;86.00;;;;;;6187060;23;20809;-67
2023/06/03 11:45:21;;;;;;;1.35;0.80;;;19.70;84.80;;;;;;6189268;23;20024;-67
2023/06/03 11:48:08;;;;;;;1.00;0.50;;;19.80;84.90;;;;;;6188179;23;20021;-67
2023/06/03 11:50:53;;;;;;;1.23;0.65;;;19.80;84.10;;;;;;6188326;23;20021;-67
2023/06/03 11:53:31;;;;;;;2.13;0.70;;;19.80;83.30;;;;;;6163377;23;20056;-67
2023/06/03 11:56:04;;;;;;;3.28;0.80;;;19.90;84.10;;;;;;6187503;23;20055;-67
2023/06/03 11:58:30;;;;;;;1.02;0.65;;;19.90;84.60;;;;;;6189233;23;20029;-68
2023/06/03 12:01:17;;;;;;;0.90;0.70;;;19.80;84.60;;;;;;6188769;23;20059;-67
2023/06/03 12:04:02;;;;;;;0.50;0.50;;;20.00;85.20;;;;;;6187660;23;20152;-67
2023/06/03 12:06:39;;;;;;;1.10;0.88;;;20.00;85.00;;;;;;6189009;23;20709;-67
2023/06/03 12:09:05;;;;;;;0.98;0.70;;;20.00;82.40;;;;;;6188213;23;20032;-69
2023/06/03 12:11:33;;;;;;;1.45;0.90;;;20.20;85.90;;;;;;6188486;23;20013;-67
2023/06/03 12:14:01;;;;;;;1.65;0.75;;;20.10;82.40;;;;;;6190013;23;20025;-68
2023/06/03 12:16:31;;;;;;;0.82;0.70;;;20.10;84.20;;;;;;6195914;23;20025;-68
2023/06/03 12:18:58;;;;;;;2.65;0.70;;;20.20;84.40;;;;;;6171859;23;20036;-67
2023/06/03 12:21:24;;;;;;;1.80;0.70;;;20.10;82.70;;;;;;6194546;23;20013;-67
2023/06/03 12:23:49;;;;;;;0.80;0.80;;;20.10;82.60;;;;;;6194534;23;20507;-67
2023/06/03 12:26:15;;;;;;;5.97;0.93;;;20.30;86.20;;;;;;6197572;23;20025;-67
2023/06/03 12:28:41;;;;;;;2.03;0.70;;;20.30;84.60;;;;;;6188869;23;20021;-67
2023/06/03 12:31:17;;;;;;;2.03;1.05;;;20.20;83.50;;;;;;6189074;23;20072;-67
2023/06/03 12:33:46;;;;;;;1.67;0.68;;;20.30;83.60;;;;;;6187784;23;20071;-68
2023/06/03 12:36:13;;;;;;;1.70;0.73;;;20.30;83.20;;;;;;6189569;23;20391;-67
2023/06/03 12:38:58;;;;;;;2.15;0.70;;;20.30;83.40;;;;;;6187234;23;20021;-67
2023/06/03 12:41:24;;;;;;;2.17;0.75;;;20.30;80.80;;;;;;6189372;23;20021;-67
2023/06/03 12:44:01;;;;;;;0.93;0.77;;;20.30;83.00;;;;;;6189062;23;20056;-67
2023/06/03 12:46:28;;;;;;;2.17;0.70;;;20.30;80.00;;;;;;6198538;23;20020;-68
2023/06/03 12:48:56;;;;;;;1.17;0.70;;;20.40;82.00;;;;;;6204711;23;20021;-68
2023/06/03 12:51:22;;;;;;;1.40;0.73;;;20.40;83.10;;;;;;6198637;23;20019;-67
2023/06/03 12:53:49;;;;;;;1.35;0.82;;;20.40;80.50;;;;;;6199174;23;20017;-68
2023/06/03 12:56:15;;;;;;;3.85;0.82;;;20.30;80.70;;;;;;6190148;23;20123;-67
2023/06/03 12:58:42;;;;;;;1.85;1.00;;;20.40;82.20;;;;;;6187391;23;20076;-67
2023/06/03 13:01:08;;;;;;;1.88;1.00;;;20.40;81.50;;;;;;6188887;23;20459;-67